Flight Track Log - Related Links

Times and Time Zones

All times are in EDT time to prevent confusion due to time zone crossing. See the SKW4735 flight status page for this flight to view local times or setup timezone preferences in your user account.

Time Position Orientation Groundspeed Altitude Reporting Facility
EDT Latitude Longitude Course Direction KTS MPH feet Rate Location/Type
Tue 08:19:07 AM 44.9333 -93.2667 90° East 204 235 4,600  Level Minneapolis TRACON
Tue 08:20:07 AM 45.0000 -93.2500 10° North 243 280 7,600 2,693 Climbing Minneapolis TRACON
Tue 08:21:14 AM 45.0139 -93.1511 79° East 308 354 10,300 2,372 Climbing Minneapolis Center
Tue 08:22:16 AM 44.9561 -93.0408 126° Southeast 345 397 12,700 2,323 Climbing Minneapolis Center
Tue 08:23:18 AM 44.8967 -92.9139 123° Southeast 368 423 15,100 2,439 Climbing Minneapolis Center
Tue 08:24:00 AM 44.6167 -92.4149 90° East  Level FlightAware Approximate
Tue 08:24:19 AM 44.8272 -92.7714 124° Southeast 377 434 17,700  Level Minneapolis Center
Tue 08:25:21 AM 44.7636 -92.6392 124° Southeast 399 459 19,400 1,742 Climbing Minneapolis Center
Tue 08:26:23 AM 44.6994 -92.5044 124° Southeast 408 470 21,300 1,659 Climbing Minneapolis Center
Tue 08:27:24 AM 44.6322 -92.3672 125° Southeast 420 483 22,800 1,512 Climbing Minneapolis Center
Tue 08:28:26 AM 44.5644 -92.2253 124° Southeast 432 497 24,400 1,500 Climbing Minneapolis Center
Tue 08:29:28 AM 44.4928 -92.0858 126° Southeast 436 502 25,900 1,268 Climbing Minneapolis Center
Tue 08:30:29 AM 44.4192 -91.9458 126° Southeast 443 510 27,000 1,024 Climbing Minneapolis Center
Tue 08:31:31 AM 44.3478 -91.7992 124° Southeast 450 518 28,000 968 Climbing Minneapolis Center
Tue 08:32:33 AM 44.2775 -91.6058 117° Southeast 461 531 29,000 488 Climbing Minneapolis Center
Tue 08:33:34 AM 44.2147 -91.4414 118° Southeast 474 545 29,000  Level Minneapolis Center
Tue 08:34:36 AM 44.1497 -91.2714 118° Southeast 487 560 29,000  Level Minneapolis Center
Tue 08:35:38 AM 44.0853 -91.1047 118° Southeast 487 560 29,000  Level Minneapolis Center
Tue 08:36:40 AM 44.0192 -90.9372 119° Southeast 492 566 29,000  Level Minneapolis Center
Tue 08:37:41 AM 43.9536 -90.7714 119° Southeast 492 566 29,000  Level Minneapolis Center
Tue 08:38:43 AM 43.8892 -90.6053 118° Southeast 493 567 29,000  Level Minneapolis Center
Tue 08:39:45 AM 43.8181 -90.4267 119° Southeast 492 566 29,000  Level Minneapolis Center
Tue 08:40:46 AM 43.7867 -90.2472 104° East 481 554 29,000  Level Minneapolis Center
Tue 08:41:48 AM 43.7558 -90.0664 103° East 481 554 29,000  Level Minneapolis Center
Tue 08:42:54 AM 43.7206 -89.8481 103° East 483 556 29,000  Level Chicago Center
Tue 08:43:56 AM 43.6894 -89.6692 103° East 482 555 29,000  Level Chicago Center
Tue 08:44:58 AM 43.6572 -89.4894 104° East 483 556 29,000  Level Chicago Center
Tue 08:46:00 AM 43.6253 -89.3100 104° East 482 555 29,000  Level Chicago Center
Tue 08:47:02 AM 43.5928 -89.1292 104° East 486 559 29,000  Level Chicago Center
Tue 08:48:04 AM 43.5525 -88.9108 104° East 488 562 29,000  Level Chicago Center
Tue 08:49:06 AM 43.5192 -88.7264 104° East 492 566 29,000  Level Chicago Center
Tue 08:50:07 AM 43.4839 -88.5406 105° East 488 562 29,000  Level Chicago Center
Tue 08:51:09 AM 43.4528 -88.3750 104° East 481 554 29,000  Level Chicago Center
Tue 08:52:11 AM 43.4178 -88.1800 104° East 472 543 29,000  Level Chicago Center
Tue 08:53:13 AM 43.3836 -88.0036 105° East 477 549 29,000  Level Chicago Center
Tue 08:54:15 AM 43.3494 -87.8250 105° East 481 554 29,000 -387 Level Chicago Center
Tue 08:55:17 AM 43.3142 -87.6431 105° East 490 564 28,200 -1,452 Descending Chicago Center
Tue 08:56:19 AM 43.2797 -87.4608 104° East 494 568 26,000 -2,195 Descending Chicago Center
Tue 08:57:20 AM 43.2425 -87.2781 106° East 469 540 23,700 -2,098 Descending Chicago Center
Tue 08:58:22 AM 43.2100 -87.1111 105° East 457 526 21,700 -1,935 Descending Chicago Center
Tue 08:59:24 AM 43.1789 -86.9522 105° East 435 501 19,700 -2,129 Descending Chicago Center
Tue 09:00:26 AM 43.1408 -86.7675 106° East 424 488 17,300 -2,129 Descending Chicago Center
Tue 09:01:28 AM 43.1097 -86.6164 106° East 421 484 15,300 -1,935 Descending Chicago Center
Tue 09:02:30 AM 43.0789 -86.4653 106° East 420 483 13,300 -1,854 Descending Chicago Center
Tue 09:03:31 AM 43.0497 -86.3228 106° East 401 461 11,500 -1,512 Descending Chicago Center
Tue 09:04:33 AM 43.0244 -86.1983 105° East 355 409 10,200 -1,403 Descending Chicago Center
Tue 09:05:35 AM 42.9992 -86.0842 107° East 329 379 8,600 -1,500 Descending Chicago Center
Tue 09:06:37 AM 42.9406 -85.9731 126° Southeast 318 366 7,100 -774 Descending Chicago Center
Tue 09:07:39 AM 42.8814 -85.8897 134° Southeast 312 359 7,000 -98 Descending Chicago Center
Tue 09:08:40 AM 42.8217 -85.8058 134° Southeast 312 359 6,900 -683 Descending Chicago Center
Tue 09:09:42 AM 42.8028 -85.6983 103° East 296 341 5,600 -1,694 Descending Chicago Center
Tue 09:10:44 AM 42.8039 -85.5983 89° East 271 312 3,400 -1,548 Descending Chicago Center
Tue 09:11:46 AM 42.8136 -85.5031 82° East 229 264 2,400 -484 Descending Chicago Center
Tue 09:12:48 AM 42.8206 -85.4406 81° East 188 216 2,400 97 Level Chicago Center
Tue 09:13:50 AM 42.7925 -85.4011 134° Southeast 189 217 2,600 293 Climbing Chicago Center
Tue 09:14:51 AM 42.7306 -85.3883 171° South 213 245 3,000 244 Climbing Chicago Center
Tue 09:15:53 AM 42.6700 -85.3764 172° South 221 254 3,100 48 Climbing Chicago Center
Tue 09:16:55 AM 42.6506 -85.4233 241° Southwest 213 245 3,100  Level Chicago Center
Tue 09:17:57 AM 42.6925 -85.4764 317° Northwest 177 204 3,100  Level Chicago Center
Tue 09:18:59 AM 42.7414 -85.4864 351° North 179 206 3,100 -290 Level Chicago Center
Tue 09:20:01 AM 42.7842 -85.4950 352° North 167 192 2,500 -629 Descending Chicago Center
Tue 09:21:03 AM 42.8169 -85.5025 350° North 141 162 1,800 -629 Descending Chicago Center
Tue 09:22:05 AM 42.8461 -85.5086 351° North 121 139 1,200 -435 Descending Chicago Center
Tue 09:23:07 AM 42.8839 -85.5172 351° North 118 136 900 -290 Descending Chicago Center

Login

Don't have an account? Register now (free) for customized features, flight alerts, and more!